Thunder radar more information blitzortung!


Radar de pluja more information rain snow radar


Visita la nostra xarxa de llocs de meteo:

Template documentation
and downloads

And another site



No particular awareness of the weather is required.    There are no Weather-warnings

Pagina Historial Weather Underground text

Diari Resum Agost 20, 2017 Unitats:  Imperial    Mètric   Tant
« Previous Dia
SegĂźent Dia »
Diari Setmana Mensual Anual Personalitzada
  Maxima: Minima: Media:
Temperatura: TemperatureC °F 20.6 °F 24.6 °F
Punt de rosada: DewpointC °F 15.4 °F 17.7 °F
Humitat: Humidity % 43 % 66 %
Wind Speed: WindSpeedKMH mph 0.0 mph 5.4 mph
RĂ fegues de vent: WindSpeedGustKMH mph - -
Vent:- - SSW
Pression baro: PressurehPa in 1016.8 in -
Precipitacions: 0.0 in    
Historical Graphs
 
 
Dades de taula per Agost 20, 2017
Temps Temperatura Punt de rosada Pression baro Vent Wind Speed RĂ fegues de vent Humitat Rainfall Rate (Hourly)
TemperatureC °F DewpointC °F PressurehPa in Calm     Humidity % HourlyPrecipMM in
00:03 22.9 °F 17.8 °F 1018.8 in SW 3.7 mph 3.7 mph 73 % 0.0 in
00:08 22.9 °F 17.8 °F 1018.8 in SW 3.7 mph 3.7 mph 73 % 0.0 in
00:13 22.9 °F 17.8 °F 1017.8 in WSW 4.2 mph 4.2 mph 73 % 0.0 in
00:18 22.9 °F 17.8 °F 1017.8 in WSW 2.3 mph 2.3 mph 73 % 0.0 in
00:23 22.9 °F 17.8 °F 1017.8 in SW 3.9 mph   73 % 0.0 in
00:28 22.9 °F 17.8 °F 1018.8 in West 3.7 mph 3.7 mph 73 % 0.0 in
00:33 22.9 °F 17.8 °F 1018.8 in SW 3.7 mph 3.7 mph 73 % 0.0 in
00:38 22.9 °F 18.0 °F 1018.8 in SW 1.9 mph 1.9 mph 74 % 0.0 in
00:43 22.9 °F 18.0 °F 1017.8 in SW 3.7 mph 3.7 mph 74 % 0.0 in
00:49 22.9 °F 17.8 °F 1017.8 in WSW 3.7 mph 3.7 mph 73 % 0.0 in
00:53 22.9 °F 18.0 °F 1017.8 in SW 1.9 mph 1.9 mph 74 % 0.0 in
00:59 23.0 °F 17.9 °F 1018.8 in West 3.7 mph 3.7 mph 73 % 0.0 in
01:04 22.9 °F 18.0 °F 1018.8 in SW 3.7 mph 3.7 mph 74 % 0.0 in
01:09 22.9 °F 18.0 °F 1018.8 in WSW 2.6 mph 2.6 mph 74 % 0.0 in
01:14 23.0 °F 17.9 °F 1017.8 in WSW 2.3 mph 2.3 mph 73 % 0.0 in
01:19 23.0 °F 17.9 °F 1017.8 in WSW 3.7 mph 3.7 mph 73 % 0.0 in
01:24 23.0 °F 18.1 °F 1017.8 in Calm     74 % 0.0 in
01:29 23.0 °F 18.1 °F 1017.8 in SW 1.9 mph   74 % 0.0 in
01:34 23.0 °F 17.9 °F 1017.8 in WSW 3.7 mph 3.7 mph 73 % 0.0 in
01:39 23.0 °F 18.1 °F 1017.8 in Calm     74 % 0.0 in
01:44 23.0 °F 18.1 °F 1017.8 in WSW 1.9 mph   74 % 0.0 in
01:49 23.0 °F 18.1 °F 1017.8 in West 2.3 mph   74 % 0.0 in
01:54 23.0 °F 18.1 °F 1017.8 in SW 3.7 mph 3.7 mph 74 % 0.0 in
01:59 23.0 °F 18.1 °F 1017.8 in WSW 1.4 mph   74 % 0.0 in
02:04 23.0 °F 18.1 °F 1017.8 in WSW 2.3 mph   74 % 0.0 in
02:09 23.0 °F 18.1 °F 1017.8 in WSW 3.7 mph 3.7 mph 74 % 0.0 in
02:14 23.0 °F 18.1 °F 1017.8 in SW 3.7 mph 3.7 mph 74 % 0.0 in
02:19 23.0 °F 18.1 °F 1017.8 in WSW 3.7 mph 3.7 mph 74 % 0.0 in
02:24 23.0 °F 18.1 °F 1017.8 in SW 1.9 mph   74 % 0.0 in
02:29 23.0 °F 18.1 °F 1017.8 in WSW 3.7 mph   74 % 0.0 in
02:34 23.0 °F 18.1 °F 1017.8 in WSW 1.9 mph   74 % 0.0 in
02:39 23.0 °F 18.1 °F 1017.8 in WSW 3.7 mph 3.7 mph 74 % 0.0 in
02:44 23.0 °F 18.1 °F 1016.8 in Calm     74 % 0.0 in
02:49 23.0 °F 18.1 °F 1016.8 in West 2.3 mph   74 % 0.0 in
02:54 23.0 °F 18.1 °F 1016.8 in North 1.9 mph   74 % 0.0 in
02:59 23.0 °F 18.1 °F 1017.8 in West 1.9 mph   74 % 0.0 in
03:04 23.0 °F 18.1 °F 1017.8 in Calm     74 % 0.0 in
03:09 23.0 °F 18.1 °F 1017.8 in Calm     74 % 0.0 in
03:14 22.9 °F 18.2 °F 1017.8 in WSW 2.6 mph   75 % 0.0 in
03:19 22.9 °F 18.2 °F 1017.8 in WSW 1.9 mph 1.9 mph 75 % 0.0 in
03:24 22.9 °F 18.2 °F 1017.8 in SW 1.9 mph   75 % 0.0 in
03:29 22.9 °F 18.2 °F 1017.8 in WSW 3.7 mph 3.7 mph 75 % 0.0 in
03:34 22.9 °F 18.2 °F 1017.8 in SW 3.7 mph 3.7 mph 75 % 0.0 in
03:39 22.9 °F 18.2 °F 1017.8 in WSW 3.7 mph 3.7 mph 75 % 0.0 in
03:44 22.9 °F 18.2 °F 1017.8 in SSW 1.9 mph   75 % 0.0 in
03:49 22.8 °F 18.1 °F 1017.8 in SW 3.9 mph 3.9 mph 75 % 0.0 in
03:54 22.8 °F 18.1 °F 1017.8 in Calm     75 % 0.0 in
03:59 22.8 °F 18.1 °F 1017.8 in SW 4.7 mph 4.7 mph 75 % 0.0 in
04:04 22.8 °F 18.3 °F 1017.8 in SW 1.9 mph   76 % 0.0 in
04:09 22.8 °F 18.3 °F 1017.8 in SW 3.7 mph 3.7 mph 76 % 0.0 in
04:14 22.8 °F 18.1 °F 1017.8 in SW 5.6 mph 5.6 mph 75 % 0.0 in
04:19 22.7 °F 18.2 °F 1017.8 in SW 3.7 mph 3.7 mph 76 % 0.0 in
04:24 22.7 °F 18.2 °F 1017.8 in SW 3.7 mph 3.7 mph 76 % 0.0 in
04:29 22.7 °F 18.2 °F 1017.8 in WSW 2.6 mph 2.6 mph 76 % 0.0 in
04:34 22.7 °F 18.2 °F 1017.8 in West 3.7 mph 3.7 mph 76 % 0.0 in
04:39 22.7 °F 18.2 °F 1017.8 in SW 1.9 mph   76 % 0.0 in
04:44 22.7 °F 18.2 °F 1017.8 in SW 1.9 mph 1.9 mph 76 % 0.0 in
04:49 22.6 °F 18.2 °F 1017.8 in WSW 3.7 mph 3.7 mph 76 % 0.0 in
04:54 22.5 °F 18.1 °F 1017.8 in SW 3.7 mph   76 % 0.0 in
04:59 22.4 °F 18.2 °F 1016.8 in SW 3.2 mph 3.2 mph 77 % 0.0 in
05:04 22.4 °F 18.2 °F 1016.8 in SW 3.7 mph 3.7 mph 77 % 0.0 in
05:09 22.3 °F 18.1 °F 1016.8 in SW 1.9 mph 1.9 mph 77 % 0.0 in
05:15 22.2 °F 18.0 °F 1017.8 in WSW 3.7 mph 3.7 mph 77 % 0.0 in
05:19 22.2 °F 18.0 °F 1017.8 in WSW 2.3 mph 2.3 mph 77 % 0.0 in
05:20 22.2 °F 18.0 °F 1017.8 in WSW 2.3 mph 2.3 mph 77 % 0.0 in
05:23 22.2 °F 18.0 °F 1017.8 in WSW 3.7 mph 3.7 mph 77 % 0.0 in
05:25 22.1 °F 17.9 °F 1017.8 in West 3.7 mph   77 % 0.0 in
05:30 22.1 °F 18.1 °F 1016.8 in WSW 3.9 mph 3.9 mph 78 % 0.0 in
05:35 22.1 °F 18.1 °F 1016.8 in Calm     78 % 0.0 in
05:45 22.0 °F 18.0 °F 1017.8 in WSW 1.9 mph 1.9 mph 78 % 0.0 in
05:50 21.9 °F 17.9 °F 1017.8 in WSW 2.6 mph 2.6 mph 78 % 0.0 in
05:55 21.9 °F 17.9 °F 1017.8 in WSW 3.7 mph 3.7 mph 78 % 0.0 in
06:00 21.9 °F 17.9 °F 1017.8 in West 3.7 mph 3.7 mph 78 % 0.0 in
06:05 21.9 °F 18.1 °F 1017.8 in WSW 3.7 mph 3.7 mph 79 % 0.0 in
06:10 21.9 °F 18.1 °F 1017.8 in Calm     79 % 0.0 in
06:15 21.8 °F 18.0 °F 1017.8 in West 1.9 mph 1.9 mph 79 % 0.0 in
06:20 21.8 °F 18.0 °F 1017.8 in Calm     79 % 0.0 in
06:25 21.8 °F 18.2 °F 1017.8 in West 1.9 mph 1.9 mph 80 % 0.0 in
06:27 21.8 °F 18.2 °F 1017.8 in Calm     80 % 0.0 in
06:32 21.7 °F 18.1 °F 1017.8 in Calm     80 % 0.0 in
06:37 21.7 °F 18.1 °F 1017.8 in Calm     80 % 0.0 in
06:42 21.6 °F 18.0 °F 1017.8 in West 1.9 mph   80 % 0.0 in
06:47 21.6 °F 18.0 °F 1017.8 in West 1.9 mph 1.9 mph 80 % 0.0 in
06:52 21.6 °F 18.0 °F 1017.8 in WSW 2.3 mph   80 % 0.0 in
06:57 21.6 °F 18.0 °F 1017.8 in Calm     80 % 0.0 in
07:02 21.5 °F 17.9 °F 1017.8 in Calm     80 % 0.0 in
07:07 21.4 °F 18.0 °F 1017.8 in Calm     81 % 0.0 in
07:12 21.3 °F 17.9 °F 1017.8 in Calm     81 % 0.0 in
07:17 21.3 °F 17.9 °F 1017.8 in Calm     81 % 0.0 in
07:22 21.3 °F 17.9 °F 1017.8 in Calm     81 % 0.0 in
07:27 21.3 °F 17.9 °F 1017.8 in Calm     81 % 0.0 in
07:32 21.2 °F 18.0 °F 1017.8 in Calm     82 % 0.0 in
07:37 21.2 °F 18.0 °F 1017.8 in Calm     82 % 0.0 in
07:42 21.2 °F 18.0 °F 1017.8 in Calm     82 % 0.0 in
07:47 21.2 °F 18.0 °F 1017.8 in Calm     82 % 0.0 in
07:52 21.2 °F 18.0 °F 1017.8 in Calm     82 % 0.0 in
07:57 21.2 °F 18.0 °F 1018.8 in SW 1.9 mph 1.9 mph 82 % 0.0 in
08:02 21.2 °F 18.0 °F 1018.8 in Calm     82 % 0.0 in
08:07 21.3 °F 18.1 °F 1018.8 in Calm     82 % 0.0 in
08:12 21.4 °F 18.4 °F 1017.8 in Calm     83 % 0.0 in
08:17 21.5 °F 18.3 °F 1017.8 in NE 3.9 mph 3.9 mph 82 % 0.0 in
08:22 21.6 °F 18.4 °F 1017.8 in East 3.7 mph 3.7 mph 82 % 0.0 in
08:27 21.6 °F 18.4 °F 1018.8 in East 1.9 mph 1.9 mph 82 % 0.0 in
08:30 21.7 °F 18.5 °F 1018.8 in Calm     82 % 0.0 in
08:35 21.7 °F 18.5 °F 1018.8 in Calm     82 % 0.0 in
08:40 21.8 °F 18.6 °F 1018.8 in SSW 1.9 mph   82 % 0.0 in
08:45 21.9 °F 18.7 °F 1018.8 in Calm     82 % 0.0 in
08:50 22.0 °F 18.8 °F 1018.8 in SW 3.2 mph 3.2 mph 82 % 0.0 in
08:55 22.2 °F 19.0 °F 1018.8 in Calm     82 % 0.0 in
09:00 22.4 °F 18.8 °F 1019.9 in SSW 3.7 mph 3.7 mph 80 % 0.0 in
09:01 22.4 °F 18.8 °F 1019.9 in SW 3.7 mph 3.7 mph 80 % 0.0 in
09:06 22.5 °F 18.7 °F 1019.9 in WSW 5.6 mph 5.6 mph 79 % 0.0 in
09:11 22.8 °F 18.9 °F 1019.9 in WSW 3.9 mph 4.2 mph 79 % 0.0 in
09:16 23.4 °F 19.1 °F 1018.8 in SW 4.7 mph 4.7 mph 77 % 0.0 in
09:21 23.6 °F 19.1 °F 1018.8 in West 3.7 mph 3.7 mph 76 % 0.0 in
09:26 23.7 °F 19.0 °F 1018.8 in SSW 3.7 mph 3.7 mph 75 % 0.0 in
09:31 23.8 °F 19.1 °F 1019.9 in SW 3.7 mph   75 % 0.0 in
09:36 23.9 °F 19.0 °F 1019.9 in WSW 3.7 mph 3.7 mph 74 % 0.0 in
09:41 24.1 °F 18.9 °F 1019.9 in WSW 5.6 mph 5.6 mph 73 % 0.0 in
09:46 24.6 °F 19.2 °F 1018.8 in SW 7.4 mph 7.4 mph 72 % 0.0 in
09:51 25.0 °F 18.9 °F 1018.8 in WSW 5.6 mph 5.6 mph 69 % 0.0 in
09:56 25.2 °F 18.9 °F 1018.8 in SW 5.6 mph 5.6 mph 68 % 0.0 in
10:01 25.6 °F 19.0 °F 1019.9 in ENE 3.7 mph 3.7 mph 67 % 0.0 in
10:06 26.0 °F 19.2 °F 1019.9 in WSW 3.7 mph   66 % 0.0 in
10:11 25.8 °F 18.9 °F 1019.9 in SE 6.1 mph 6.1 mph 66 % 0.0 in
10:16 25.8 °F 18.7 °F 1018.8 in WSW 5.6 mph 5.6 mph 65 % 0.0 in
10:21 26.0 °F 18.9 °F 1018.8 in SW 7.4 mph 7.4 mph 65 % 0.0 in
10:26 26.0 °F 18.9 °F 1018.8 in SSE 5.6 mph 5.6 mph 65 % 0.0 in
10:31 26.4 °F 19.1 °F 1019.9 in SE 5.6 mph 5.6 mph 64 % 0.0 in
10:36 26.1 °F 18.2 °F 1019.9 in East 7.4 mph 7.4 mph 62 % 0.0 in
10:41 26.1 °F 18.5 °F 1019.9 in NNE 5.6 mph 5.6 mph 63 % 0.0 in
10:46 26.4 °F 18.6 °F 1019.9 in NNW 5.0 mph 5.0 mph 62 % 0.0 in
10:51 26.9 °F 19.0 °F 1019.9 in NNW 3.7 mph 3.7 mph 62 % 0.0 in
10:56 27.2 °F 19.0 °F 1019.9 in SSW 5.8 mph 5.8 mph 61 % 0.0 in
11:01 26.6 °F 18.4 °F 1019.9 in SW 6.1 mph 6.1 mph 61 % 0.0 in
11:06 26.6 °F 18.4 °F 1019.9 in WNW 5.6 mph 5.6 mph 61 % 0.0 in
11:11 27.0 °F 18.6 °F 1019.9 in ENE 6.1 mph 6.1 mph 60 % 0.0 in
11:16 27.4 °F 18.4 °F 1018.8 in South 9.3 mph 9.3 mph 58 % 0.0 in
11:21 27.9 °F 18.9 °F 1018.8 in ESE 5.6 mph 5.6 mph 58 % 0.0 in
11:26 28.6 °F 19.2 °F 1018.8 in SE 3.7 mph 3.7 mph 57 % 0.0 in
11:31 28.9 °F 19.5 °F 1018.8 in West 5.6 mph 5.6 mph 57 % 0.0 in
11:36 28.5 °F 18.9 °F 1018.8 in SSW 7.4 mph 7.4 mph 56 % 0.0 in
11:41 28.5 °F 18.6 °F 1018.8 in South 3.7 mph 3.7 mph 55 % 0.0 in
11:46 28.1 °F 17.6 °F 1019.9 in ENE 9.3 mph 9.3 mph 53 % 0.0 in
11:51 27.1 °F 17.0 °F 1019.9 in ENE 9.3 mph 9.3 mph 54 % 0.0 in
11:56 27.1 °F 17.6 °F 1019.9 in South 4.2 mph 4.2 mph 56 % 0.0 in
12:01 27.3 °F 18.1 °F 1019.9 in SSE 7.4 mph 7.4 mph 57 % 0.0 in
12:06 27.3 °F 18.1 °F 1019.9 in East 7.4 mph 7.4 mph 57 % 0.0 in
12:11 26.9 °F 18.2 °F 1019.9 in East 5.6 mph 5.6 mph 59 % 0.0 in
12:16 26.5 °F 18.1 °F 1018.8 in SE 13.0 mph 13.0 mph 60 % 0.0 in
12:21 26.8 °F 18.4 °F 1018.8 in ESE 16.4 mph 16.4 mph 60 % 0.0 in
12:26 26.7 °F 18.6 °F 1018.8 in SSE 9.3 mph 9.3 mph 61 % 0.0 in
12:31 26.9 °F 18.7 °F 1018.8 in East 11.1 mph 11.1 mph 61 % 0.0 in
12:36 27.0 °F 18.3 °F 1018.8 in South 9.3 mph 9.3 mph 59 % 0.0 in
12:41 26.9 °F 18.7 °F 1018.8 in SE 7.4 mph 7.4 mph 61 % 0.0 in
12:46 27.0 °F 18.6 °F 1018.8 in ESE 7.4 mph 7.4 mph 60 % 0.0 in
12:51 26.5 °F 18.4 °F 1018.8 in South 9.3 mph 9.3 mph 61 % 0.0 in
12:56 25.9 °F 18.1 °F 1018.8 in West 18.5 mph 18.5 mph 62 % 0.0 in
13:01 25.5 °F 17.7 °F 1018.8 in ENE 14.0 mph 14.0 mph 62 % 0.0 in
13:06 25.1 °F 17.6 °F 1018.8 in SE 13.0 mph 13.0 mph 63 % 0.0 in
13:11 25.4 °F 18.1 °F 1018.8 in SE 13.7 mph 13.7 mph 64 % 0.0 in
13:16 25.6 °F 18.1 °F 1018.8 in SE 9.3 mph 9.3 mph 63 % 0.0 in
13:21 25.7 °F 18.4 °F 1018.8 in SSE 14.8 mph 14.8 mph 64 % 0.0 in
13:26 26.9 °F 19.0 °F 1018.8 in ESE 7.4 mph 7.4 mph 62 % 0.0 in
13:31 27.7 °F 19.2 °F 1018.8 in SSE 7.9 mph 7.9 mph 60 % 0.0 in
13:36 27.7 °F 19.2 °F 1018.8 in SSW 5.6 mph 5.6 mph 60 % 0.0 in
13:41 28.1 °F 19.3 °F 1018.8 in SW 11.1 mph 11.1 mph 59 % 0.0 in
13:46 28.5 °F 18.9 °F 1018.8 in SSW 7.4 mph 7.4 mph 56 % 0.0 in
13:51 28.8 °F 19.2 °F 1018.8 in SSE 9.3 mph 9.3 mph 56 % 0.0 in
13:56 28.2 °F 18.3 °F 1018.8 in SSW 11.1 mph 11.1 mph 55 % 0.0 in
14:01 28.8 °F 19.2 °F 1017.8 in SSW 6.9 mph 6.9 mph 56 % 0.0 in
14:06 28.9 °F 18.3 °F 1017.8 in SSE 18.5 mph 18.5 mph 53 % 0.0 in
14:11 29.4 °F 18.2 °F 1017.8 in SSE 5.8 mph 5.8 mph 51 % 0.0 in
14:16 29.4 °F 17.9 °F 1017.8 in SSE 13.0 mph 13.0 mph 50 % 0.0 in
14:21 29.8 °F 18.9 °F 1017.8 in WSW 9.5 mph 9.5 mph 52 % 0.0 in
14:26 29.7 °F 18.2 °F 1017.8 in South 5.6 mph 5.6 mph 50 % 0.0 in
14:31 30.4 °F 18.8 °F 1017.8 in WSW 13.7 mph 13.7 mph 50 % 0.0 in
14:36 30.6 °F 18.3 °F 1017.8 in ESE 11.1 mph 11.1 mph 48 % 0.0 in
14:41 30.1 °F 17.9 °F 1017.8 in SSW 9.3 mph 9.3 mph 48 % 0.0 in
14:46 30.1 °F 17.9 °F 1017.8 in South 11.1 mph 11.1 mph 48 % 0.0 in
14:51 29.9 °F 18.1 °F 1017.8 in SSW 9.3 mph 9.3 mph 49 % 0.0 in
14:56 29.9 °F 18.1 °F 1017.8 in SW 9.5 mph 9.5 mph 49 % 0.0 in
15:01 29.7 °F 17.5 °F 1017.8 in ESE 7.4 mph 7.4 mph 48 % 0.0 in
15:06 29.9 °F 18.1 °F 1017.8 in SW 9.3 mph 9.3 mph 49 % 0.0 in
15:11 29.9 °F 17.7 °F 1017.8 in SSW 13.0 mph 13.0 mph 48 % 0.0 in
15:16 30.2 °F 17.7 °F 1017.8 in SW 10.3 mph 10.3 mph 47 % 0.0 in
15:21 30.1 °F 17.2 °F 1017.8 in SW 11.1 mph 11.1 mph 46 % 0.0 in
15:22 30.0 °F 16.8 °F 1017.8 in SW 14.5 mph 14.5 mph 45 % 0.0 in
15:27 30.6 °F 17.3 °F 1017.8 in WSW 5.6 mph 5.6 mph 45 % 0.0 in
15:32 30.2 °F 17.3 °F 1017.8 in SW 14.8 mph 14.8 mph 46 % 0.0 in
15:37 30.8 °F 17.5 °F 1017.8 in SSW 5.6 mph 5.8 mph 45 % 0.0 in
15:42 30.2 °F 17.3 °F 1017.8 in ESE 9.3 mph 9.3 mph 46 % 0.0 in
15:47 30.2 °F 16.9 °F 1017.8 in WSW 9.3 mph 9.3 mph 45 % 0.0 in
15:52 30.4 °F 16.8 °F 1017.8 in WSW 11.1 mph 11.1 mph 44 % 0.0 in
15:57 30.0 °F 16.1 °F 1017.8 in SW 16.7 mph 16.7 mph 43 % 0.0 in
16:02 29.7 °F 15.8 °F 1017.8 in SSW 13.0 mph 13.0 mph 43 % 0.0 in
16:07 30.0 °F 16.1 °F 1017.8 in WSW 19.8 mph 19.8 mph 43 % 0.0 in
16:12 29.8 °F 15.9 °F 1017.8 in SSW 14.8 mph 14.8 mph 43 % 0.0 in
16:17 29.8 °F 15.9 °F 1017.8 in SW 16.7 mph 16.7 mph 43 % 0.0 in
16:22 29.9 °F 15.9 °F 1017.8 in WSW 18.5 mph 18.5 mph 43 % 0.0 in
16:27 29.7 °F 16.2 °F 1017.8 in South 22.2 mph 22.2 mph 44 % 0.0 in
16:32 29.7 °F 15.8 °F 1017.8 in SW 11.9 mph 11.9 mph 43 % 0.0 in
16:37 29.6 °F 15.7 °F 1017.8 in SW 20.4 mph 20.4 mph 43 % 0.0 in
16:42 29.6 °F 15.7 °F 1018.8 in South 7.4 mph 7.4 mph 43 % 0.0 in
16:47 29.5 °F 15.6 °F 1018.8 in SW 12.6 mph 12.6 mph 43 % 0.0 in
16:52 29.7 °F 15.8 °F 1018.8 in SW 13.0 mph 13.0 mph 43 % 0.0 in
16:57 29.4 °F 15.5 °F 1017.8 in SW 13.0 mph 13.0 mph 43 % 0.0 in
17:02 29.3 °F 15.4 °F 1017.8 in SSW 13.0 mph 13.0 mph 43 % 0.0 in
17:07 29.7 °F 15.8 °F 1017.8 in SW 13.0 mph 13.0 mph 43 % 0.0 in
17:12 29.0 °F 15.5 °F 1017.8 in SSW 9.3 mph 9.5 mph 44 % 0.0 in
17:17 29.6 °F 16.1 °F 1017.8 in South 9.3 mph 9.3 mph 44 % 0.0 in
17:22 29.8 °F 16.6 °F 1017.8 in WSW 13.0 mph 13.0 mph 45 % 0.0 in
17:27 29.5 °F 16.3 °F 1017.8 in West 11.9 mph 11.9 mph 45 % 0.0 in
17:32 29.2 °F 16.1 °F 1017.8 in SSW 11.1 mph 11.1 mph 45 % 0.0 in
17:37 29.6 °F 16.4 °F 1017.8 in SW 15.1 mph 15.1 mph 45 % 0.0 in
17:42 29.1 °F 16.3 °F 1017.8 in SW 3.7 mph 3.7 mph 46 % 0.0 in
17:47 28.8 °F 16.4 °F 1017.8 in WSW 7.4 mph 7.4 mph 47 % 0.0 in
17:52 28.6 °F 16.5 °F 1017.8 in SE 10.0 mph 10.0 mph 48 % 0.0 in
17:57 28.0 °F 15.9 °F 1017.8 in SW 9.3 mph 9.3 mph 48 % 0.0 in
18:02 27.6 °F 15.9 °F 1017.8 in SSW 9.3 mph 9.3 mph 49 % 0.0 in
18:07 27.7 °F 16.0 °F 1017.8 in SSE 5.8 mph 5.8 mph 49 % 0.0 in
18:12 27.5 °F 16.2 °F 1017.8 in ESE 7.4 mph 7.4 mph 50 % 0.0 in
18:17 27.3 °F 15.9 °F 1017.8 in SW 13.0 mph 13.0 mph 50 % 0.0 in
18:22 27.2 °F 15.9 °F 1017.8 in WSW 11.1 mph 11.1 mph 50 % 0.0 in
18:27 27.1 °F 15.8 °F 1017.8 in West 7.4 mph 7.4 mph 50 % 0.0 in
18:32 27.0 °F 15.7 °F 1017.8 in SW 13.7 mph 13.7 mph 50 % 0.0 in
18:37 27.1 °F 16.1 °F 1017.8 in SW 11.1 mph 11.1 mph 51 % 0.0 in
18:42 27.1 °F 16.1 °F 1017.8 in SW 11.1 mph 11.1 mph 51 % 0.0 in
18:47 27.1 °F 16.1 °F 1017.8 in SW 5.6 mph 5.6 mph 51 % 0.0 in
18:52 27.1 °F 16.4 °F 1017.8 in SSW 7.4 mph 7.4 mph 52 % 0.0 in
18:57 27.3 °F 16.3 °F 1017.8 in SW 7.4 mph 7.4 mph 51 % 0.0 in
19:02 27.2 °F 16.2 °F 1017.8 in WSW 9.3 mph 9.3 mph 51 % 0.0 in
19:07 27.2 °F 16.5 °F 1017.8 in SW 5.6 mph 6.1 mph 52 % 0.0 in
19:12 27.1 °F 16.4 °F 1017.8 in SSW 9.3 mph 9.3 mph 52 % 0.0 in
19:17 26.8 °F 16.4 °F 1017.8 in South 7.4 mph 7.4 mph 53 % 0.0 in
19:22 26.7 °F 16.6 °F 1017.8 in SW 3.7 mph 3.7 mph 54 % 0.0 in
19:27 26.5 °F 16.4 °F 1017.8 in South 13.0 mph 13.0 mph 54 % 0.0 in
19:32 26.3 °F 16.6 °F 1017.8 in SSE 13.0 mph 13.0 mph 55 % 0.0 in
19:37 26.2 °F 16.4 °F 1017.8 in SSW 9.3 mph 9.3 mph 55 % 0.0 in
19:42 25.9 °F 16.4 °F 1017.8 in WSW 13.0 mph 13.0 mph 56 % 0.0 in
19:43 25.9 °F 16.4 °F 1017.8 in SW 5.6 mph 6.9 mph 56 % 0.0 in
19:48 25.8 °F 16.3 °F 1017.8 in SW 9.3 mph 9.3 mph 56 % 0.0 in
19:53 25.7 °F 16.6 °F 1017.8 in SSW 9.3 mph 9.3 mph 57 % 0.0 in
19:58 25.6 °F 16.4 °F 1016.8 in SW 9.3 mph 9.3 mph 57 % 0.0 in
20:03 25.4 °F 16.3 °F 1016.8 in SW 7.4 mph 7.4 mph 57 % 0.0 in
20:08 25.3 °F 16.2 °F 1016.8 in SSW 9.3 mph 9.3 mph 57 % 0.0 in
20:13 25.1 °F 16.3 °F 1017.8 in SW 9.3 mph 9.3 mph 58 % 0.0 in
20:15 22.1 °F 17.7 °F 1018.8 in SW 1.6 mph 3.2 mph 76 % 0.0 in
20:18 25.0 °F 16.2 °F 1017.8 in SW 9.3 mph 9.3 mph 58 % 0.0 in
20:23 24.9 °F 16.6 °F 1017.8 in SW 9.3 mph 9.3 mph 60 % 0.0 in
20:25 22.1 °F 18.1 °F 1018.8 in SW 1.6 mph 3.2 mph 78 % 0.0 in
20:28 24.8 °F 16.5 °F 1017.8 in WSW 9.3 mph 9.3 mph 60 % 0.0 in
20:33 24.6 °F 16.6 °F 1017.8 in SW 7.4 mph 7.4 mph 61 % 0.0 in
20:35 22.1 °F 18.1 °F 1019.9 in SW 1.6 mph 3.2 mph 78 % 0.0 in
20:38 24.6 °F 16.6 °F 1017.8 in SW 5.6 mph 5.6 mph 61 % 0.0 in
20:43 24.5 °F 16.5 °F 1017.8 in South 7.4 mph 7.4 mph 61 % 0.0 in
20:45 22.0 °F 18.0 °F 1019.9 in SW 1.6 mph 3.2 mph 78 % 0.0 in
20:48 24.4 °F 16.4 °F 1017.8 in South 7.4 mph 7.4 mph 61 % 0.0 in
20:53 24.3 °F 16.3 °F 1017.8 in SW 6.1 mph 6.1 mph 61 % 0.0 in
20:55 21.9 °F 18.1 °F 1019.9 in SW 1.6 mph 3.2 mph 79 % 0.0 in
20:58 24.2 °F 16.4 °F 1017.8 in WSW 5.6 mph 5.6 mph 62 % 0.0 in
21:03 24.1 °F 16.6 °F 1017.8 in SW 5.8 mph 5.8 mph 63 % 0.0 in
21:05 21.8 °F 18.0 °F 1018.8 in SW 1.6 mph 3.2 mph 79 % 0.0 in
21:08 24.0 °F 16.5 °F 1017.8 in SW 5.6 mph 5.6 mph 63 % 0.0 in
21:13 24.0 °F 16.8 °F 1017.8 in SW 5.6 mph 5.6 mph 64 % 0.0 in
21:15 21.7 °F 17.9 °F 1018.8 in WSW 1.6 mph 3.2 mph 79 % 0.0 in
21:18 23.9 °F 16.9 °F 1017.8 in SW 3.7 mph 3.7 mph 65 % 0.0 in
21:23 23.8 °F 16.8 °F 1017.8 in South 5.6 mph 5.6 mph 65 % 0.0 in
21:25 21.7 °F 17.9 °F 1018.8 in WSW 1.6 mph 3.2 mph 79 % 0.0 in
21:28 23.7 °F 16.9 °F 1018.8 in SW 5.6 mph 5.6 mph 66 % 0.0 in
21:33 23.7 °F 17.2 °F 1018.8 in SSW 3.9 mph 3.9 mph 67 % 0.0 in
21:35 21.8 °F 18.2 °F 1018.8 in WSW 1.6 mph 3.2 mph 80 % 0.0 in
21:38 23.6 °F 17.1 °F 1018.8 in SW 3.7 mph 3.7 mph 67 % 0.0 in
21:43 23.5 °F 17.3 °F 1018.8 in SW 3.9 mph 3.9 mph 68 % 0.0 in
21:45 21.8 °F 18.2 °F 1018.8 in West 1.6 mph 3.2 mph 80 % 0.0 in
21:48 23.5 °F 17.3 °F 1018.8 in SW 3.7 mph 3.7 mph 68 % 0.0 in
21:53 23.4 °F 17.2 °F 1018.8 in SW 3.7 mph 3.7 mph 68 % 0.0 in
21:55 21.8 °F 18.4 °F 1018.8 in West 1.6 mph 4.8 mph 81 % 0.0 in
21:58 23.4 °F 17.4 °F 1018.8 in SW 3.7 mph 3.7 mph 69 % 0.0 in
22:03 23.3 °F 17.3 °F 1018.8 in SW 3.7 mph 3.7 mph 69 % 0.0 in
22:05 21.8 °F 18.4 °F 1018.8 in Calm   3.2 mph 81 % 0.0 in
22:08 23.2 °F 17.4 °F 1018.8 in SW 3.5 mph   70 % 0.0 in
22:13 23.2 °F 17.4 °F 1018.8 in SSW 3.7 mph 3.7 mph 70 % 0.0 in
22:15 21.7 °F 18.5 °F 1018.8 in Calm   3.2 mph 82 % 0.0 in
22:18 23.1 °F 17.3 °F 1018.8 in SW 4.7 mph 4.7 mph 70 % 0.0 in
22:23 23.1 °F 17.6 °F 1018.8 in SW 2.3 mph   71 % 0.0 in
22:25 21.6 °F 18.4 °F 1018.8 in Calm     82 % 0.0 in
22:28 23.0 °F 17.4 °F 1018.8 in SW 3.7 mph 3.7 mph 71 % 0.0 in
22:29 23.0 °F 17.4 °F 1018.8 in SW 1.9 mph 1.9 mph 71 % 0.0 in
22:34 23.0 °F 17.7 °F 1018.8 in SW 3.7 mph 3.7 mph 72 % 0.0 in
22:35 21.4 °F 18.2 °F 1018.8 in Calm     82 % 0.0 in
22:39 22.9 °F 17.6 °F 1018.8 in WSW 3.7 mph 3.7 mph 72 % 0.0 in
22:44 22.9 °F 17.8 °F 1018.8 in SW 3.7 mph 3.7 mph 73 % 0.0 in
22:45 21.3 °F 18.3 °F 1018.8 in Calm     83 % 0.0 in
22:49 22.8 °F 17.7 °F 1018.8 in Calm     73 % 0.0 in
22:54 22.8 °F 17.7 °F 1018.8 in Calm     73 % 0.0 in
22:55 21.0 °F 18.0 °F 1018.8 in Calm   1.6 mph 83 % 0.0 in
22:59 22.8 °F 17.7 °F 1018.8 in WSW 1.9 mph 2.3 mph 73 % 0.0 in
23:04 22.9 °F 18.0 °F 1018.8 in WSW 1.9 mph 1.9 mph 74 % 0.0 in
23:05 20.9 °F 17.9 °F 1018.8 in Calm   1.6 mph 83 % 0.0 in
23:09 22.8 °F 17.9 °F 1018.8 in WSW 2.3 mph 2.3 mph 74 % 0.0 in
23:14 22.8 °F 17.9 °F 1018.8 in Calm     74 % 0.0 in
23:15 20.7 °F 17.5 °F 1018.8 in South 3.2 mph 3.2 mph 82 % 0.0 in
23:19 22.8 °F 18.1 °F 1018.8 in Calm     75 % 0.0 in
23:24 22.7 °F 18.1 °F 1018.8 in Calm     75 % 0.0 in
23:25 20.6 °F 17.6 °F 1018.8 in Calm   4.8 mph 83 % 0.0 in
23:29 22.7 °F 18.1 °F 1018.8 in SW 1.9 mph   75 % 0.0 in
23:34 22.6 °F 17.9 °F 1018.8 in Calm     75 % 0.0 in
23:35 20.8 °F 18.0 °F 1018.8 in Calm   1.6 mph 84 % 0.0 in
23:39 22.5 °F 17.8 °F 1018.8 in SW 2.3 mph 2.3 mph 75 % 0.0 in
23:44 22.5 °F 17.8 °F 1018.8 in WSW 1.9 mph   75 % 0.0 in
23:45 20.7 °F 18.1 °F 1018.8 in Calm     85 % 0.0 in
23:49 22.5 °F 18.1 °F 1018.8 in Calm     76 % 0.0 in
23:54 22.4 °F 17.9 °F 1018.8 in SW 1.9 mph 1.9 mph 76 % 0.0 in
23:55 20.7 °F 18.1 °F 1018.8 in SSE 3.2 mph 6.4 mph 85 % 0.0 in
23:59 22.4 °F 17.9 °F 1018.8 in Calm     76 % 0.0 in
Meteo Sesrovires
Elogis d' Weather Underground - 1.75 mb

Guio original per  Jim McMurry - jmcmurry@mwt.net Adaptat per a la plantilla per  Wim van der Kuil - Leuven-Template.eu

Trobareu la nostra informacio del temps tambe a:

Weather Underground

AWEKAS